sensor_id;sensor_type;location;lat;lon;timestamp;P1;durP1;ratioP1;P2;durP2;ratioP2
68229;SDS011;55048;52.220;5.160;2023-09-07T00:00:14;6.40;;;3.65;;
68229;SDS011;55048;52.220;5.160;2023-09-07T00:02:40;10.73;;;3.88;;
68229;SDS011;55048;52.220;5.160;2023-09-07T00:05:06;8.95;;;3.10;;
68229;SDS011;55048;52.220;5.160;2023-09-07T00:07:32;6.82;;;3.83;;
68229;SDS011;55048;52.220;5.160;2023-09-07T00:09:58;6.50;;;3.50;;
68229;SDS011;55048;52.220;5.160;2023-09-07T00:12:25;7.70;;;3.20;;
68229;SDS011;55048;52.220;5.160;2023-09-07T00:14:50;3.92;;;3.40;;
68229;SDS011;55048;52.220;5.160;2023-09-07T00:17:16;7.07;;;4.18;;
68229;SDS011;55048;52.220;5.160;2023-09-07T00:19:41;5.68;;;3.83;;
68229;SDS011;55048;52.220;5.160;2023-09-07T00:22:07;6.18;;;4.03;;
68229;SDS011;55048;52.220;5.160;2023-09-07T00:24:32;9.43;;;4.20;;
68229;SDS011;55048;52.220;5.160;2023-09-07T00:26:58;6.25;;;3.72;;
68229;SDS011;55048;52.220;5.160;2023-09-07T00:29:23;6.97;;;3.80;;
68229;SDS011;55048;52.220;5.160;2023-09-07T00:31:49;4.82;;;3.95;;
68229;SDS011;55048;52.220;5.160;2023-09-07T00:34:14;5.45;;;3.85;;
68229;SDS011;55048;52.220;5.160;2023-09-07T00:36:40;8.82;;;4.10;;
68229;SDS011;55048;52.220;5.160;2023-09-07T00:39:05;7.95;;;4.30;;
68229;SDS011;55048;52.220;5.160;2023-09-07T00:41:31;5.43;;;3.50;;
68229;SDS011;55048;52.220;5.160;2023-09-07T00:43:56;5.95;;;4.25;;
68229;SDS011;55048;52.220;5.160;2023-09-07T00:46:21;6.85;;;3.70;;
68229;SDS011;55048;52.220;5.160;2023-09-07T00:48:48;6.38;;;4.05;;
68229;SDS011;55048;52.220;5.160;2023-09-07T00:51:14;5.05;;;4.05;;
68229;SDS011;55048;52.220;5.160;2023-09-07T00:53:39;5.60;;;4.13;;
68229;SDS011;55048;52.220;5.160;2023-09-07T00:56:06;5.10;;;4.03;;
68229;SDS011;55048;52.220;5.160;2023-09-07T00:58:32;5.80;;;4.18;;
68229;SDS011;55048;52.220;5.160;2023-09-07T01:00:59;6.47;;;4.20;;
68229;SDS011;55048;52.220;5.160;2023-09-07T01:03:24;5.50;;;4.00;;
68229;SDS011;55048;52.220;5.160;2023-09-07T01:08:43;6.05;;;4.13;;
68229;SDS011;55048;52.220;5.160;2023-09-07T01:11:18;10.55;;;3.88;;
68229;SDS011;55048;52.220;5.160;2023-09-07T01:13:51;6.05;;;4.60;;
68229;SDS011;55048;52.220;5.160;2023-09-07T01:16:19;6.25;;;4.00;;
68229;SDS011;55048;52.220;5.160;2023-09-07T01:18:46;5.15;;;4.32;;
68229;SDS011;55048;52.220;5.160;2023-09-07T01:21:13;7.07;;;5.15;;
68229;SDS011;55048;52.220;5.160;2023-09-07T01:23:40;7.35;;;4.40;;
68229;SDS011;55048;52.220;5.160;2023-09-07T01:26:07;10.25;;;4.75;;
68229;SDS011;55048;52.220;5.160;2023-09-07T01:28:34;6.68;;;4.82;;
68229;SDS011;55048;52.220;5.160;2023-09-07T01:31:01;7.25;;;4.68;;
68229;SDS011;55048;52.220;5.160;2023-09-07T01:33:27;7.25;;;4.38;;
68229;SDS011;55048;52.220;5.160;2023-09-07T01:35:52;5.38;;;4.57;;
68229;SDS011;55048;52.220;5.160;2023-09-07T01:38:18;9.88;;;4.82;;
68229;SDS011;55048;52.220;5.160;2023-09-07T01:40:44;8.52;;;4.28;;
68229;SDS011;55048;52.220;5.160;2023-09-07T01:43:10;5.45;;;4.30;;
68229;SDS011;55048;52.220;5.160;2023-09-07T01:45:36;7.45;;;4.60;;
68229;SDS011;55048;52.220;5.160;2023-09-07T01:48:01;5.97;;;4.70;;
68229;SDS011;55048;52.220;5.160;2023-09-07T01:50:29;6.15;;;4.93;;
68229;SDS011;55048;52.220;5.160;2023-09-07T01:52:55;12.85;;;4.30;;
68229;SDS011;55048;52.220;5.160;2023-09-07T01:55:20;6.10;;;4.13;;
68229;SDS011;55048;52.220;5.160;2023-09-07T01:57:45;7.65;;;4.43;;
68229;SDS011;55048;52.220;5.160;2023-09-07T02:00:11;13.77;;;4.65;;
68229;SDS011;55048;52.220;5.160;2023-09-07T02:02:40;7.03;;;4.53;;
68229;SDS011;55048;52.220;5.160;2023-09-07T02:05:06;7.88;;;4.65;;
68229;SDS011;55048;52.220;5.160;2023-09-07T02:07:31;5.28;;;4.78;;
68229;SDS011;55048;52.220;5.160;2023-09-07T02:09:57;9.93;;;4.60;;
68229;SDS011;55048;52.220;5.160;2023-09-07T02:12:22;7.82;;;4.85;;
68229;SDS011;55048;52.220;5.160;2023-09-07T02:14:48;4.68;;;4.28;;
68229;SDS011;55048;52.220;5.160;2023-09-07T02:17:13;7.43;;;4.82;;
68229;SDS011;55048;52.220;5.160;2023-09-07T02:19:43;13.57;;;5.35;;
68229;SDS011;55048;52.220;5.160;2023-09-07T02:22:09;8.73;;;4.53;;
68229;SDS011;55048;52.220;5.160;2023-09-07T02:24:35;6.13;;;4.63;;
68229;SDS011;55048;52.220;5.160;2023-09-07T02:27:00;7.57;;;5.10;;
68229;SDS011;55048;52.220;5.160;2023-09-07T02:29:25;7.35;;;4.57;;
68229;SDS011;55048;52.220;5.160;2023-09-07T02:31:52;6.10;;;5.38;;
68229;SDS011;55048;52.220;5.160;2023-09-07T02:34:18;6.78;;;4.53;;
68229;SDS011;55048;52.220;5.160;2023-09-07T02:36:44;7.88;;;4.80;;
68229;SDS011;55048;52.220;5.160;2023-09-07T02:39:09;8.10;;;4.88;;
68229;SDS011;55048;52.220;5.160;2023-09-07T02:41:37;6.30;;;5.13;;
68229;SDS011;55048;52.220;5.160;2023-09-07T02:44:03;5.78;;;4.72;;
68229;SDS011;55048;52.220;5.160;2023-09-07T02:46:29;5.70;;;5.07;;
68229;SDS011;55048;52.220;5.160;2023-09-07T02:48:56;5.72;;;5.05;;
68229;SDS011;55048;52.220;5.160;2023-09-07T02:51:24;5.90;;;5.00;;
68229;SDS011;55048;52.220;5.160;2023-09-07T02:53:50;6.35;;;5.05;;
68229;SDS011;55048;52.220;5.160;2023-09-07T02:56:16;6.38;;;5.45;;
68229;SDS011;55048;52.220;5.160;2023-09-07T02:58:41;9.30;;;5.57;;
68229;SDS011;55048;52.220;5.160;2023-09-07T03:01:07;6.63;;;5.43;;
68229;SDS011;55048;52.220;5.160;2023-09-07T03:03:35;9.07;;;5.25;;
68229;SDS011;55048;52.220;5.160;2023-09-07T03:06:11;6.68;;;4.95;;
68229;SDS011;55048;52.220;5.160;2023-09-07T03:08:40;12.30;;;5.50;;
68229;SDS011;55048;52.220;5.160;2023-09-07T03:11:06;9.50;;;5.60;;
68229;SDS011;55048;52.220;5.160;2023-09-07T03:13:33;6.70;;;5.45;;
68229;SDS011;55048;52.220;5.160;2023-09-07T03:15:58;7.32;;;6.30;;
68229;SDS011;55048;52.220;5.160;2023-09-07T03:18:25;6.93;;;5.72;;
68229;SDS011;55048;52.220;5.160;2023-09-07T03:20:53;10.23;;;6.03;;
68229;SDS011;55048;52.220;5.160;2023-09-07T03:23:19;9.38;;;6.13;;
68229;SDS011;55048;52.220;5.160;2023-09-07T03:25:45;8.65;;;5.85;;
68229;SDS011;55048;52.220;5.160;2023-09-07T03:28:10;9.55;;;5.72;;
68229;SDS011;55048;52.220;5.160;2023-09-07T03:30:36;8.23;;;5.40;;
68229;SDS011;55048;52.220;5.160;2023-09-07T03:33:02;6.13;;;5.43;;
68229;SDS011;55048;52.220;5.160;2023-09-07T03:35:28;9.10;;;5.68;;
68229;SDS011;55048;52.220;5.160;2023-09-07T03:37:54;11.90;;;5.50;;
68229;SDS011;55048;52.220;5.160;2023-09-07T03:40:20;6.35;;;5.05;;
68229;SDS011;55048;52.220;5.160;2023-09-07T03:42:46;9.55;;;5.82;;
68229;SDS011;55048;52.220;5.160;2023-09-07T03:45:12;8.60;;;6.30;;
68229;SDS011;55048;52.220;5.160;2023-09-07T03:47:38;8.82;;;5.93;;
68229;SDS011;55048;52.220;5.160;2023-09-07T03:50:04;7.72;;;5.72;;
68229;SDS011;55048;52.220;5.160;2023-09-07T03:52:31;6.72;;;5.80;;
68229;SDS011;55048;52.220;5.160;2023-09-07T03:54:59;6.95;;;6.20;;
68229;SDS011;55048;52.220;5.160;2023-09-07T03:57:25;10.32;;;6.22;;
68229;SDS011;55048;52.220;5.160;2023-09-07T03:59:52;9.77;;;5.35;;
68229;SDS011;55048;52.220;5.160;2023-09-07T04:02:20;9.13;;;6.38;;
68229;SDS011;55048;52.220;5.160;2023-09-07T04:04:50;7.30;;;6.03;;
68229;SDS011;55048;52.220;5.160;2023-09-07T04:07:17;7.22;;;6.05;;
68229;SDS011;55048;52.220;5.160;2023-09-07T04:09:43;6.35;;;5.72;;
68229;SDS011;55048;52.220;5.160;2023-09-07T04:12:09;10.27;;;5.95;;
68229;SDS011;55048;52.220;5.160;2023-09-07T04:14:35;9.20;;;6.50;;
68229;SDS011;55048;52.220;5.160;2023-09-07T04:17:00;7.50;;;6.28;;
68229;SDS011;55048;52.220;5.160;2023-09-07T04:19:26;9.40;;;6.68;;
68229;SDS011;55048;52.220;5.160;2023-09-07T04:21:52;11.30;;;5.82;;
68229;SDS011;55048;52.220;5.160;2023-09-07T04:24:18;9.00;;;6.45;;
68229;SDS011;55048;52.220;5.160;2023-09-07T04:26:43;8.82;;;6.32;;
68229;SDS011;55048;52.220;5.160;2023-09-07T04:29:09;9.93;;;6.75;;
68229;SDS011;55048;52.220;5.160;2023-09-07T04:31:35;7.50;;;6.45;;
68229;SDS011;55048;52.220;5.160;2023-09-07T04:34:01;8.57;;;6.47;;
68229;SDS011;55048;52.220;5.160;2023-09-07T04:36:28;9.50;;;6.97;;
68229;SDS011;55048;52.220;5.160;2023-09-07T04:38:54;11.52;;;6.35;;
68229;SDS011;55048;52.220;5.160;2023-09-07T04:41:19;8.90;;;6.78;;
68229;SDS011;55048;52.220;5.160;2023-09-07T04:43:45;7.93;;;6.00;;
68229;SDS011;55048;52.220;5.160;2023-09-07T04:46:11;9.57;;;6.60;;
68229;SDS011;55048;52.220;5.160;2023-09-07T04:48:38;7.75;;;6.78;;
68229;SDS011;55048;52.220;5.160;2023-09-07T04:51:09;7.88;;;6.28;;
68229;SDS011;55048;52.220;5.160;2023-09-07T04:53:36;9.88;;;6.90;;
68229;SDS011;55048;52.220;5.160;2023-09-07T04:56:03;12.32;;;7.40;;
68229;SDS011;55048;52.220;5.160;2023-09-07T04:58:29;9.00;;;7.15;;
68229;SDS011;55048;52.220;5.160;2023-09-07T05:01:05;9.63;;;7.88;;
68229;SDS011;55048;52.220;5.160;2023-09-07T05:03:33;9.40;;;7.65;;
68229;SDS011;55048;52.220;5.160;2023-09-07T05:05:59;12.65;;;8.02;;
68229;SDS011;55048;52.220;5.160;2023-09-07T05:08:25;9.10;;;7.90;;
68229;SDS011;55048;52.220;5.160;2023-09-07T05:10:56;9.23;;;7.70;;
68229;SDS011;55048;52.220;5.160;2023-09-07T05:13:30;14.75;;;7.90;;
68229;SDS011;55048;52.220;5.160;2023-09-07T05:15:59;11.02;;;7.05;;
68229;SDS011;55048;52.220;5.160;2023-09-07T05:18:26;10.50;;;7.00;;
68229;SDS011;55048;52.220;5.160;2023-09-07T05:20:52;9.40;;;7.72;;
68229;SDS011;55048;52.220;5.160;2023-09-07T05:23:18;9.95;;;7.45;;
68229;SDS011;55048;52.220;5.160;2023-09-07T05:25:46;9.48;;;7.80;;
68229;SDS011;55048;52.220;5.160;2023-09-07T05:28:14;8.18;;;7.22;;
68229;SDS011;55048;52.220;5.160;2023-09-07T05:30:40;10.55;;;7.38;;
68229;SDS011;55048;52.220;5.160;2023-09-07T05:33:06;12.07;;;6.72;;
68229;SDS011;55048;52.220;5.160;2023-09-07T05:35:33;11.35;;;7.13;;
68229;SDS011;55048;52.220;5.160;2023-09-07T05:37:59;9.10;;;7.10;;
68229;SDS011;55048;52.220;5.160;2023-09-07T05:40:24;10.27;;;7.10;;
68229;SDS011;55048;52.220;5.160;2023-09-07T05:42:50;9.88;;;7.25;;
68229;SDS011;55048;52.220;5.160;2023-09-07T05:45:15;8.23;;;7.43;;
68229;SDS011;55048;52.220;5.160;2023-09-07T05:47:41;11.48;;;7.65;;
68229;SDS011;55048;52.220;5.160;2023-09-07T05:50:06;13.93;;;7.93;;
68229;SDS011;55048;52.220;5.160;2023-09-07T05:52:32;13.25;;;7.25;;
68229;SDS011;55048;52.220;5.160;2023-09-07T05:54:58;9.48;;;7.03;;
68229;SDS011;55048;52.220;5.160;2023-09-07T05:57:23;10.27;;;7.47;;
68229;SDS011;55048;52.220;5.160;2023-09-07T05:59:49;9.35;;;6.97;;
68229;SDS011;55048;52.220;5.160;2023-09-07T06:02:14;9.85;;;7.60;;
68229;SDS011;55048;52.220;5.160;2023-09-07T06:04:40;10.93;;;7.15;;
68229;SDS011;55048;52.220;5.160;2023-09-07T06:07:06;12.77;;;6.55;;
68229;SDS011;55048;52.220;5.160;2023-09-07T06:09:31;11.25;;;6.47;;
68229;SDS011;55048;52.220;5.160;2023-09-07T06:11:56;8.82;;;6.25;;
68229;SDS011;55048;52.220;5.160;2023-09-07T06:14:22;9.60;;;6.13;;
68229;SDS011;55048;52.220;5.160;2023-09-07T06:16:48;18.52;;;6.10;;
68229;SDS011;55048;52.220;5.160;2023-09-07T06:19:13;11.23;;;6.43;;
68229;SDS011;55048;52.220;5.160;2023-09-07T06:21:39;10.10;;;6.00;;
68229;SDS011;55048;52.220;5.160;2023-09-07T06:24:05;9.60;;;5.68;;
68229;SDS011;55048;52.220;5.160;2023-09-07T06:26:32;11.05;;;5.82;;
68229;SDS011;55048;52.220;5.160;2023-09-07T06:28:57;8.60;;;5.55;;
68229;SDS011;55048;52.220;5.160;2023-09-07T06:31:23;13.25;;;5.95;;
68229;SDS011;55048;52.220;5.160;2023-09-07T06:33:48;9.10;;;5.72;;
68229;SDS011;55048;52.220;5.160;2023-09-07T06:36:14;8.00;;;4.90;;
68229;SDS011;55048;52.220;5.160;2023-09-07T06:38:40;10.48;;;5.63;;
68229;SDS011;55048;52.220;5.160;2023-09-07T06:41:05;8.55;;;5.43;;
68229;SDS011;55048;52.220;5.160;2023-09-07T06:43:33;9.48;;;5.20;;
68229;SDS011;55048;52.220;5.160;2023-09-07T06:46:06;8.88;;;5.35;;
68229;SDS011;55048;52.220;5.160;2023-09-07T06:48:35;6.18;;;5.18;;
68229;SDS011;55048;52.220;5.160;2023-09-07T06:51:01;5.85;;;5.25;;
68229;SDS011;55048;52.220;5.160;2023-09-07T06:53:29;9.20;;;5.95;;
68229;SDS011;55048;52.220;5.160;2023-09-07T06:55:58;12.20;;;6.18;;
68229;SDS011;55048;52.220;5.160;2023-09-07T06:58:24;8.88;;;5.38;;
68229;SDS011;55048;52.220;5.160;2023-09-07T07:00:49;14.30;;;5.72;;
68229;SDS011;55048;52.220;5.160;2023-09-07T07:03:15;15.50;;;5.93;;
68229;SDS011;55048;52.220;5.160;2023-09-07T07:05:40;7.30;;;5.70;;
68229;SDS011;55048;52.220;5.160;2023-09-07T07:08:06;9.95;;;6.10;;
68229;SDS011;55048;52.220;5.160;2023-09-07T07:10:32;7.60;;;5.05;;
68229;SDS011;55048;52.220;5.160;2023-09-07T07:12:57;17.90;;;6.05;;
68229;SDS011;55048;52.220;5.160;2023-09-07T07:15:23;9.88;;;5.80;;
68229;SDS011;55048;52.220;5.160;2023-09-07T07:17:48;13.30;;;5.90;;
68229;SDS011;55048;52.220;5.160;2023-09-07T07:20:14;16.83;;;5.93;;
68229;SDS011;55048;52.220;5.160;2023-09-07T07:22:39;8.63;;;5.63;;
68229;SDS011;55048;52.220;5.160;2023-09-07T07:25:05;9.18;;;5.40;;
68229;SDS011;55048;52.220;5.160;2023-09-07T07:27:31;11.43;;;5.13;;
68229;SDS011;55048;52.220;5.160;2023-09-07T07:29:57;8.90;;;4.97;;
68229;SDS011;55048;52.220;5.160;2023-09-07T07:32:23;8.68;;;5.13;;
68229;SDS011;55048;52.220;5.160;2023-09-07T07:34:48;6.97;;;5.43;;
68229;SDS011;55048;52.220;5.160;2023-09-07T07:37:14;14.10;;;5.90;;
68229;SDS011;55048;52.220;5.160;2023-09-07T07:39:40;8.60;;;5.47;;
68229;SDS011;55048;52.220;5.160;2023-09-07T07:42:05;8.45;;;4.85;;
68229;SDS011;55048;52.220;5.160;2023-09-07T07:44:31;11.43;;;5.45;;
68229;SDS011;55048;52.220;5.160;2023-09-07T07:46:57;6.68;;;5.22;;
68229;SDS011;55048;52.220;5.160;2023-09-07T07:49:22;11.55;;;4.78;;
68229;SDS011;55048;52.220;5.160;2023-09-07T07:51:48;12.68;;;5.50;;
68229;SDS011;55048;52.220;5.160;2023-09-07T07:54:13;5.97;;;5.05;;
68229;SDS011;55048;52.220;5.160;2023-09-07T07:56:39;8.35;;;5.32;;
68229;SDS011;55048;52.220;5.160;2023-09-07T07:59:05;7.60;;;5.20;;
68229;SDS011;55048;52.220;5.160;2023-09-07T08:01:30;9.85;;;5.32;;
68229;SDS011;55048;52.220;5.160;2023-09-07T08:03:57;10.32;;;5.10;;
68229;SDS011;55048;52.220;5.160;2023-09-07T08:06:24;6.78;;;3.95;;
68229;SDS011;55048;52.220;5.160;2023-09-07T08:08:50;6.28;;;4.20;;
68229;SDS011;55048;52.220;5.160;2023-09-07T08:11:15;6.82;;;4.13;;
68229;SDS011;55048;52.220;5.160;2023-09-07T08:13:42;11.40;;;4.15;;
68229;SDS011;55048;52.220;5.160;2023-09-07T08:16:11;9.95;;;4.32;;
68229;SDS011;55048;52.220;5.160;2023-09-07T08:18:37;7.45;;;3.53;;
68229;SDS011;55048;52.220;5.160;2023-09-07T08:21:03;8.60;;;3.85;;
68229;SDS011;55048;52.220;5.160;2023-09-07T08:23:28;6.75;;;3.88;;
68229;SDS011;55048;52.220;5.160;2023-09-07T08:25:54;5.65;;;3.58;;
68229;SDS011;55048;52.220;5.160;2023-09-07T08:28:22;9.65;;;3.45;;
68229;SDS011;55048;52.220;5.160;2023-09-07T08:30:48;7.57;;;3.28;;
68229;SDS011;55048;52.220;5.160;2023-09-07T08:33:15;8.52;;;2.80;;
68229;SDS011;55048;52.220;5.160;2023-09-07T08:35:41;8.90;;;2.85;;
68229;SDS011;55048;52.220;5.160;2023-09-07T08:38:09;6.72;;;2.50;;
68229;SDS011;55048;52.220;5.160;2023-09-07T08:40:35;8.15;;;2.50;;
68229;SDS011;55048;52.220;5.160;2023-09-07T08:43:02;7.25;;;2.85;;
68229;SDS011;55048;52.220;5.160;2023-09-07T08:45:29;8.82;;;3.38;;
68229;SDS011;55048;52.220;5.160;2023-09-07T08:47:59;3.30;;;2.45;;
68229;SDS011;55048;52.220;5.160;2023-09-07T08:50:25;12.65;;;2.70;;
68229;SDS011;55048;52.220;5.160;2023-09-07T08:52:51;6.70;;;2.30;;
68229;SDS011;55048;52.220;5.160;2023-09-07T08:55:18;3.50;;;2.50;;
68229;SDS011;55048;52.220;5.160;2023-09-07T08:57:44;6.28;;;2.28;;
68229;SDS011;55048;52.220;5.160;2023-09-07T09:00:10;3.85;;;2.22;;
68229;SDS011;55048;52.220;5.160;2023-09-07T09:02:41;4.40;;;2.20;;
68229;SDS011;55048;52.220;5.160;2023-09-07T09:05:08;3.75;;;2.33;;
68229;SDS011;55048;52.220;5.160;2023-09-07T09:07:36;11.25;;;2.13;;
68229;SDS011;55048;52.220;5.160;2023-09-07T09:10:04;5.25;;;1.98;;
68229;SDS011;55048;52.220;5.160;2023-09-07T09:12:30;4.30;;;2.30;;
68229;SDS011;55048;52.220;5.160;2023-09-07T09:14:55;6.25;;;2.10;;
68229;SDS011;55048;52.220;5.160;2023-09-07T09:17:24;4.97;;;2.03;;
68229;SDS011;55048;52.220;5.160;2023-09-07T09:19:49;5.37;;;2.10;;
68229;SDS011;55048;52.220;5.160;2023-09-07T09:22:15;5.82;;;2.10;;
68229;SDS011;55048;52.220;5.160;2023-09-07T09:24:40;6.22;;;2.00;;
68229;SDS011;55048;52.220;5.160;2023-09-07T09:27:06;10.50;;;2.20;;
68229;SDS011;55048;52.220;5.160;2023-09-07T09:29:34;6.03;;;1.92;;
68229;SDS011;55048;52.220;5.160;2023-09-07T09:32:02;5.63;;;2.35;;
68229;SDS011;55048;52.220;5.160;2023-09-07T09:34:36;2.33;;;1.73;;
68229;SDS011;55048;52.220;5.160;2023-09-07T09:37:03;5.30;;;1.80;;
68229;SDS011;55048;52.220;5.160;2023-09-07T09:39:29;16.20;;;2.05;;
68229;SDS011;55048;52.220;5.160;2023-09-07T09:41:54;4.53;;;1.70;;
68229;SDS011;55048;52.220;5.160;2023-09-07T09:44:21;10.90;;;2.30;;
68229;SDS011;55048;52.220;5.160;2023-09-07T09:49:17;7.47;;;1.95;;
68229;SDS011;55048;52.220;5.160;2023-09-07T09:51:44;2.75;;;1.67;;
68229;SDS011;55048;52.220;5.160;2023-09-07T09:54:11;7.85;;;1.73;;
68229;SDS011;55048;52.220;5.160;2023-09-07T09:56:37;4.90;;;1.67;;
68229;SDS011;55048;52.220;5.160;2023-09-07T09:59:02;7.30;;;1.88;;
68229;SDS011;55048;52.220;5.160;2023-09-07T10:01:29;2.97;;;1.40;;
68229;SDS011;55048;52.220;5.160;2023-09-07T10:03:54;5.75;;;1.65;;
68229;SDS011;55048;52.220;5.160;2023-09-07T10:06:25;11.90;;;1.60;;
68229;SDS011;55048;52.220;5.160;2023-09-07T10:11:39;2.95;;;1.58;;
68229;SDS011;55048;52.220;5.160;2023-09-07T10:14:05;7.57;;;1.60;;
68229;SDS011;55048;52.220;5.160;2023-09-07T10:16:53;7.22;;;1.63;;
68229;SDS011;55048;52.220;5.160;2023-09-07T10:19:25;10.07;;;1.45;;
68229;SDS011;55048;52.220;5.160;2023-09-07T10:21:54;6.80;;;1.70;;
68229;SDS011;55048;52.220;5.160;2023-09-07T10:24:27;6.35;;;1.33;;
68229;SDS011;55048;52.220;5.160;2023-09-07T10:26:58;4.88;;;1.50;;
68229;SDS011;55048;52.220;5.160;2023-09-07T10:32:15;4.50;;;1.30;;
68229;SDS011;55048;52.220;5.160;2023-09-07T10:34:41;5.20;;;1.48;;
68229;SDS011;55048;52.220;5.160;2023-09-07T10:37:14;2.75;;;1.30;;
68229;SDS011;55048;52.220;5.160;2023-09-07T10:39:41;6.05;;;1.20;;
68229;SDS011;55048;52.220;5.160;2023-09-07T10:42:23;2.92;;;1.30;;
68229;SDS011;55048;52.220;5.160;2023-09-07T10:44:49;2.17;;;1.27;;
68229;SDS011;55048;52.220;5.160;2023-09-07T10:47:15;5.07;;;1.40;;
68229;SDS011;55048;52.220;5.160;2023-09-07T10:49:40;3.78;;;1.38;;
68229;SDS011;55048;52.220;5.160;2023-09-07T10:52:06;5.65;;;1.50;;
68229;SDS011;55048;52.220;5.160;2023-09-07T10:54:32;1.80;;;1.30;;
68229;SDS011;55048;52.220;5.160;2023-09-07T10:56:58;4.50;;;1.20;;
68229;SDS011;55048;52.220;5.160;2023-09-07T10:59:33;1.90;;;1.20;;
68229;SDS011;55048;52.220;5.160;2023-09-07T11:02:05;4.43;;;1.45;;
68229;SDS011;55048;52.220;5.160;2023-09-07T11:04:31;3.28;;;1.20;;
68229;SDS011;55048;52.220;5.160;2023-09-07T11:06:57;5.72;;;1.40;;
68229;SDS011;55048;52.220;5.160;2023-09-07T11:09:23;3.05;;;1.33;;
68229;SDS011;55048;52.220;5.160;2023-09-07T11:11:48;2.58;;;1.20;;
68229;SDS011;55048;52.220;5.160;2023-09-07T11:14:13;6.22;;;1.60;;
68229;SDS011;55048;52.220;5.160;2023-09-07T11:16:40;6.60;;;1.42;;
68229;SDS011;55048;52.220;5.160;2023-09-07T11:19:06;5.95;;;1.27;;
68229;SDS011;55048;52.220;5.160;2023-09-07T11:21:34;5.63;;;1.30;;
68229;SDS011;55048;52.220;5.160;2023-09-07T11:24:01;4.72;;;1.30;;
68229;SDS011;55048;52.220;5.160;2023-09-07T11:26:39;1.63;;;1.17;;
68229;SDS011;55048;52.220;5.160;2023-09-07T11:29:06;3.58;;;1.27;;
68229;SDS011;55048;52.220;5.160;2023-09-07T11:31:31;7.60;;;1.20;;
68229;SDS011;55048;52.220;5.160;2023-09-07T11:33:57;6.47;;;1.30;;
68229;SDS011;55048;52.220;5.160;2023-09-07T11:36:23;2.83;;;1.10;;
68229;SDS011;55048;52.220;5.160;2023-09-07T11:38:49;3.00;;;1.60;;
68229;SDS011;55048;52.220;5.160;2023-09-07T11:41:15;3.15;;;1.40;;
68229;SDS011;55048;52.220;5.160;2023-09-07T11:43:40;2.42;;;1.27;;
68229;SDS011;55048;52.220;5.160;2023-09-07T11:46:07;2.30;;;1.50;;
68229;SDS011;55048;52.220;5.160;2023-09-07T11:48:33;3.42;;;1.40;;
68229;SDS011;55048;52.220;5.160;2023-09-07T11:50:59;3.63;;;1.30;;
68229;SDS011;55048;52.220;5.160;2023-09-07T11:53:25;2.90;;;1.23;;
68229;SDS011;55048;52.220;5.160;2023-09-07T11:55:50;5.72;;;1.35;;
68229;SDS011;55048;52.220;5.160;2023-09-07T11:58:16;6.78;;;1.38;;
68229;SDS011;55048;52.220;5.160;2023-09-07T12:00:42;6.15;;;1.45;;
68229;SDS011;55048;52.220;5.160;2023-09-07T12:03:08;3.20;;;1.40;;
68229;SDS011;55048;52.220;5.160;2023-09-07T12:05:33;9.15;;;1.27;;
68229;SDS011;55048;52.220;5.160;2023-09-07T12:08:00;4.53;;;1.40;;
68229;SDS011;55048;52.220;5.160;2023-09-07T12:10:26;15.10;;;1.45;;
68229;SDS011;55048;52.220;5.160;2023-09-07T12:12:52;8.15;;;1.67;;
68229;SDS011;55048;52.220;5.160;2023-09-07T12:15:17;2.13;;;1.30;;
68229;SDS011;55048;52.220;5.160;2023-09-07T12:17:42;4.57;;;1.42;;
68229;SDS011;55048;52.220;5.160;2023-09-07T12:20:08;7.78;;;1.38;;
68229;SDS011;55048;52.220;5.160;2023-09-07T12:22:36;5.80;;;1.30;;
68229;SDS011;55048;52.220;5.160;2023-09-07T12:25:05;2.97;;;1.20;;
68229;SDS011;55048;52.220;5.160;2023-09-07T12:27:32;4.60;;;1.40;;
68229;SDS011;55048;52.220;5.160;2023-09-07T12:30:03;4.28;;;1.48;;
68229;SDS011;55048;52.220;5.160;2023-09-07T12:32:33;1.70;;;1.20;;
68229;SDS011;55048;52.220;5.160;2023-09-07T12:34:59;5.63;;;1.40;;
68229;SDS011;55048;52.220;5.160;2023-09-07T12:37:24;3.85;;;1.50;;
68229;SDS011;55048;52.220;5.160;2023-09-07T12:39:50;3.00;;;1.45;;
68229;SDS011;55048;52.220;5.160;2023-09-07T12:42:16;2.60;;;1.35;;
68229;SDS011;55048;52.220;5.160;2023-09-07T12:44:43;6.53;;;1.42;;
68229;SDS011;55048;52.220;5.160;2023-09-07T12:47:09;2.47;;;1.38;;
68229;SDS011;55048;52.220;5.160;2023-09-07T12:49:34;3.40;;;1.38;;
68229;SDS011;55048;52.220;5.160;2023-09-07T12:51:59;8.63;;;1.60;;
68229;SDS011;55048;52.220;5.160;2023-09-07T12:54:25;5.90;;;1.70;;
68229;SDS011;55048;52.220;5.160;2023-09-07T12:56:51;4.22;;;1.40;;
68229;SDS011;55048;52.220;5.160;2023-09-07T12:59:17;2.92;;;1.30;;
68229;SDS011;55048;52.220;5.160;2023-09-07T13:01:43;3.55;;;1.85;;
68229;SDS011;55048;52.220;5.160;2023-09-07T13:04:08;4.20;;;1.50;;
68229;SDS011;55048;52.220;5.160;2023-09-07T13:06:36;2.15;;;1.40;;
68229;SDS011;55048;52.220;5.160;2023-09-07T13:09:02;6.32;;;1.60;;
68229;SDS011;55048;52.220;5.160;2023-09-07T13:11:29;4.43;;;1.42;;
68229;SDS011;55048;52.220;5.160;2023-09-07T13:13:55;7.80;;;1.33;;
68229;SDS011;55048;52.220;5.160;2023-09-07T13:16:20;2.80;;;1.30;;
68229;SDS011;55048;52.220;5.160;2023-09-07T13:18:46;8.00;;;1.63;;
68229;SDS011;55048;52.220;5.160;2023-09-07T13:21:11;3.58;;;1.77;;
68229;SDS011;55048;52.220;5.160;2023-09-07T13:23:36;4.53;;;1.50;;
68229;SDS011;55048;52.220;5.160;2023-09-07T13:26:02;5.43;;;1.58;;
68229;SDS011;55048;52.220;5.160;2023-09-07T13:28:27;5.13;;;1.38;;
68229;SDS011;55048;52.220;5.160;2023-09-07T13:30:53;2.63;;;1.20;;
68229;SDS011;55048;52.220;5.160;2023-09-07T13:33:19;2.28;;;1.20;;
68229;SDS011;55048;52.220;5.160;2023-09-07T13:35:44;4.80;;;1.30;;
68229;SDS011;55048;52.220;5.160;2023-09-07T13:38:10;2.35;;;1.30;;
68229;SDS011;55048;52.220;5.160;2023-09-07T13:40:35;5.70;;;1.20;;
68229;SDS011;55048;52.220;5.160;2023-09-07T13:43:01;2.60;;;1.38;;
68229;SDS011;55048;52.220;5.160;2023-09-07T13:45:26;9.73;;;1.58;;
68229;SDS011;55048;52.220;5.160;2023-09-07T13:47:54;5.43;;;1.40;;
68229;SDS011;55048;52.220;5.160;2023-09-07T13:50:19;3.83;;;1.30;;
68229;SDS011;55048;52.220;5.160;2023-09-07T13:52:45;4.05;;;1.50;;
68229;SDS011;55048;52.220;5.160;2023-09-07T13:55:10;3.63;;;1.40;;
68229;SDS011;55048;52.220;5.160;2023-09-07T13:57:36;3.30;;;1.20;;
68229;SDS011;55048;52.220;5.160;2023-09-07T14:00:02;1.50;;;1.10;;
68229;SDS011;55048;52.220;5.160;2023-09-07T14:02:29;5.30;;;1.45;;
68229;SDS011;55048;52.220;5.160;2023-09-07T14:04:55;4.93;;;1.42;;
68229;SDS011;55048;52.220;5.160;2023-09-07T14:07:21;4.20;;;1.35;;
68229;SDS011;55048;52.220;5.160;2023-09-07T14:09:46;1.92;;;1.30;;
68229;SDS011;55048;52.220;5.160;2023-09-07T14:12:11;3.58;;;1.40;;
68229;SDS011;55048;52.220;5.160;2023-09-07T14:14:37;4.07;;;1.30;;
68229;SDS011;55048;52.220;5.160;2023-09-07T14:17:03;5.20;;;1.48;;
68229;SDS011;55048;52.220;5.160;2023-09-07T14:19:29;5.43;;;1.55;;
68229;SDS011;55048;52.220;5.160;2023-09-07T14:21:56;1.80;;;1.50;;
68229;SDS011;55048;52.220;5.160;2023-09-07T14:24:23;2.65;;;1.50;;
68229;SDS011;55048;52.220;5.160;2023-09-07T14:26:49;5.15;;;1.33;;
68229;SDS011;55048;52.220;5.160;2023-09-07T14:29:14;1.77;;;1.20;;
68229;SDS011;55048;52.220;5.160;2023-09-07T14:31:40;2.30;;;1.20;;
68229;SDS011;55048;52.220;5.160;2023-09-07T14:34:07;2.08;;;1.40;;
68229;SDS011;55048;52.220;5.160;2023-09-07T14:36:33;3.45;;;1.45;;
68229;SDS011;55048;52.220;5.160;2023-09-07T14:38:58;3.05;;;1.40;;
68229;SDS011;55048;52.220;5.160;2023-09-07T14:41:23;2.67;;;1.30;;
68229;SDS011;55048;52.220;5.160;2023-09-07T14:43:49;5.65;;;1.40;;
68229;SDS011;55048;52.220;5.160;2023-09-07T14:46:15;7.78;;;1.60;;
68229;SDS011;55048;52.220;5.160;2023-09-07T14:48:40;3.80;;;1.40;;
68229;SDS011;55048;52.220;5.160;2023-09-07T14:51:06;4.93;;;1.65;;